Time;durP1;ratioP1;P1;durP2;ratioP2;P2;SDS_P1;SDS_P2;PMS_P1;PMS_P2;Temp;Humidity;BMP_temperature;BMP_pressure;BME280_temperature;BME280_humidity;BME280_pressure;Samples;Min_cycle;Max_cycle;Signal;HPM_P1;HPM_P2
2022/02/05 00:05:29;;;;;;;35.23;16.47;;;5.70;99.90;;;;;;5113990;28;20034;-75
2022/02/05 00:43:08;;;;;;;19.00;8.25;;;5.60;99.90;;;;;;5116988;28;20130;-76
2022/02/05 00:45:38;;;;;;;20.95;7.05;;;5.50;99.90;;;;;;5116939;28;20024;-75
2022/02/05 00:48:05;;;;;;;28.13;14.67;;;5.50;99.90;;;;;;5115292;28;20065;-78
2022/02/05 00:50:33;;;;;;;12.75;4.30;;;5.50;99.90;;;;;;5116564;28;20684;-78
2022/02/05 00:53:07;;;;;;;15.43;5.00;;;5.50;99.90;;;;;;5115236;28;20039;-75
2022/02/05 00:55:37;;;;;;;15.18;3.95;;;5.40;99.90;;;;;;5116438;28;20500;-79
2022/02/05 00:58:03;;;;;;;9.77;3.65;;;5.30;99.90;;;;;;5116715;28;20028;-77
2022/02/05 01:00:31;;;;;;;11.52;4.68;;;5.30;99.90;;;;;;5116531;27;20038;-75
2022/02/05 01:02:57;;;;;;;11.07;4.00;;;5.30;99.90;;;;;;5114861;28;20535;-75
2022/02/05 01:05:23;;;;;;;10.75;4.70;;;5.20;99.90;;;;;;5116500;28;20054;-78
2022/02/05 01:07:49;;;;;;;11.18;3.92;;;5.20;99.90;;;;;;5116234;28;20016;-74
2022/02/05 01:10:16;;;;;;;13.93;5.93;;;5.20;99.90;;;;;;5116181;28;20016;-75
2022/02/05 01:12:48;;;;;;;12.07;4.25;;;5.20;99.90;;;;;;5116124;28;20069;-76
2022/02/05 01:15:18;;;;;;;10.77;3.55;;;5.10;99.90;;;;;;5114555;28;20023;-77
2022/02/05 01:17:50;;;;;;;10.45;5.38;;;5.10;99.90;;;;;;5116603;28;20026;-75
2022/02/05 01:23:03;;;;;;;12.52;5.03;;;5.10;99.90;;;;;;5115994;28;20036;-75
2022/02/05 01:25:34;;;;;;;16.63;3.88;;;5.10;99.90;;;;;;5116245;28;20038;-77
2022/02/05 01:28:08;;;;;;;12.80;4.10;;;5.20;99.90;;;;;;5114319;28;20480;-76
2022/02/05 01:30:38;;;;;;;11.68;3.70;;;5.20;99.90;;;;;;5116141;28;20020;-75
2022/02/05 01:49:13;;;;;;;8.90;3.47;;;5.20;99.90;;;;;;5115678;28;20038;-77
2022/02/05 01:57:19;;;;;;;11.25;4.30;;;5.10;99.90;;;;;;5115623;28;19953;-75
2022/02/05 02:00:04;;;;;;;8.18;3.35;;;5.10;99.90;;;;;;5114710;28;20390;-76
2022/02/05 02:05:11;;;;;;;11.20;3.20;;;5.00;99.90;;;;;;5115393;28;20043;-76
2022/02/05 02:10:51;;;;;;;12.00;3.40;;;5.10;99.90;;;;;;5115035;28;20031;-76
2022/02/05 02:16:36;;;;;;;8.98;3.60;;;5.10;99.90;;;;;;5080463;28;20035;-76
2022/02/05 02:19:16;;;;;;;11.90;3.70;;;5.10;99.90;;;;;;5115128;28;20022;-76
2022/02/05 02:21:58;;;;;;;10.45;4.07;;;5.00;99.90;;;;;;5113192;28;20081;-76
2022/02/05 02:25:00;;;;;;;11.75;3.53;;;5.10;99.90;;;;;;5113178;28;20110;-76
2022/02/05 02:27:24;;;;;;;9.98;3.90;;;5.10;99.90;;;;;;5114185;28;20036;-77
2022/02/05 02:32:17;;;;;;;11.15;3.95;;;5.10;99.90;;;;;;5114589;28;20044;-76
2022/02/05 02:34:48;;;;;;;14.68;4.57;;;5.10;99.90;;;;;;5114548;28;20019;-76
2022/02/05 02:37:20;;;;;;;12.90;4.55;;;5.10;99.90;;;;;;5112971;28;20469;-77
2022/02/05 02:40:08;;;;;;;11.18;3.85;;;5.10;99.90;;;;;;5114714;28;20023;-75
2022/02/05 02:42:40;;;;;;;9.75;3.40;;;5.10;99.90;;;;;;5114498;28;20435;-75
2022/02/05 02:45:06;;;;;;;10.48;3.42;;;5.10;99.90;;;;;;5114705;28;20020;-76
2022/02/05 02:47:32;;;;;;;9.95;3.58;;;5.20;99.90;;;;;;5114337;28;20024;-78
2022/02/05 02:57:56;;;;;;;13.52;3.47;;;5.20;99.90;;;;;;5113889;28;20027;-77
2022/02/05 03:00:22;;;;;;;10.13;3.63;;;5.20;99.90;;;;;;5114023;28;20027;-76
2022/02/05 03:02:48;;;;;;;9.13;3.75;;;5.10;99.90;;;;;;5114018;28;20050;-76
2022/02/05 03:05:14;;;;;;;11.18;3.40;;;5.00;99.90;;;;;;5114048;28;20444;-76
2022/02/05 03:07:39;;;;;;;10.70;3.28;;;5.00;99.90;;;;;;5113975;28;20505;-76
2022/02/05 03:10:06;;;;;;;14.43;4.20;;;4.90;99.90;;;;;;5113936;28;20016;-77
2022/02/05 03:12:34;;;;;;;13.65;3.38;;;4.80;99.90;;;;;;5112666;28;20043;-78
2022/02/05 03:15:00;;;;;;;12.32;3.80;;;4.80;99.90;;;;;;5113922;28;20043;-78
2022/02/05 03:17:32;;;;;;;7.55;3.20;;;4.80;99.90;;;;;;5113873;28;20030;-74
2022/02/05 03:19:58;;;;;;;13.85;3.65;;;4.90;99.90;;;;;;5112231;28;20084;-75
2022/02/05 03:22:25;;;;;;;12.52;3.30;;;5.00;99.90;;;;;;5113775;28;20026;-75
2022/02/05 03:24:51;;;;;;;12.02;2.95;;;5.00;99.90;;;;;;5113448;28;20070;-76
2022/02/05 03:27:19;;;;;;;8.25;3.80;;;5.00;99.90;;;;;;5113802;28;20027;-76
2022/02/05 03:29:48;;;;;;;8.02;3.33;;;4.90;99.90;;;;;;5112456;28;20020;-77
2022/02/05 03:32:16;;;;;;;8.43;3.53;;;5.00;99.90;;;;;;5112446;28;20024;-75
2022/02/05 03:34:42;;;;;;;12.80;4.00;;;4.90;99.90;;;;;;5113947;28;20019;-76
2022/02/05 03:37:07;;;;;;;11.15;3.65;;;4.90;99.90;;;;;;5113617;28;20028;-77
2022/02/05 03:39:33;;;;;;;12.43;4.18;;;4.90;99.90;;;;;;5113874;28;20019;-76
2022/02/05 03:42:00;;;;;;;11.25;3.63;;;4.90;99.90;;;;;;5113507;28;20031;-75
2022/02/05 03:44:25;;;;;;;13.75;3.58;;;4.90;99.90;;;;;;5113574;28;20019;-76
2022/02/05 03:46:53;;;;;;;10.13;3.10;;;4.80;99.90;;;;;;5112276;28;20061;-76
2022/02/05 03:49:20;;;;;;;8.35;3.47;;;4.70;99.90;;;;;;5114065;28;20517;-77
2022/02/05 03:51:47;;;;;;;10.10;3.17;;;4.60;99.90;;;;;;5113545;28;20103;-76
2022/02/05 03:54:14;;;;;;;11.35;3.58;;;4.50;99.90;;;;;;5113662;28;20424;-76
2022/02/05 03:56:40;;;;;;;8.70;3.15;;;4.50;99.90;;;;;;5113415;28;20038;-77
2022/02/05 03:59:06;;;;;;;7.25;3.08;;;4.40;99.90;;;;;;5113466;28;20020;-75
2022/02/05 04:01:33;;;;;;;9.85;3.42;;;4.30;99.90;;;;;;5113874;28;20061;-75
2022/02/05 04:03:58;;;;;;;10.80;3.10;;;4.30;99.90;;;;;;5113215;28;20039;-75
2022/02/05 04:06:24;;;;;;;8.00;3.17;;;4.30;99.90;;;;;;5113296;28;20024;-76
2022/02/05 04:08:51;;;;;;;6.00;3.10;;;4.30;99.90;;;;;;5116971;28;20016;-77
2022/02/05 04:11:31;;;;;;;9.45;3.17;;;4.30;99.90;;;;;;5117343;28;20115;-76
2022/02/05 04:16:42;;;;;;;8.13;3.20;;;4.10;99.90;;;;;;5117487;28;20042;-77
2022/02/05 04:19:07;;;;;;;13.27;3.38;;;4.10;99.90;;;;;;5117249;28;20024;-79
2022/02/05 04:21:33;;;;;;;7.95;2.97;;;4.20;99.90;;;;;;5117064;28;20479;-78
2022/02/05 04:24:03;;;;;;;12.70;5.22;;;4.30;99.90;;;;;;5117106;28;20405;-76
2022/02/05 04:26:29;;;;;;;10.77;3.72;;;4.30;99.90;;;;;;5115817;28;20051;-76
2022/02/05 04:28:56;;;;;;;7.65;3.58;;;4.30;99.90;;;;;;5117284;28;20035;-77
2022/02/05 04:31:22;;;;;;;9.65;3.00;;;4.20;99.90;;;;;;5116951;28;20072;-75
2022/02/05 04:33:48;;;;;;;10.02;5.03;;;4.20;99.90;;;;;;5116903;28;20064;-76
2022/02/05 04:36:15;;;;;;;12.15;3.58;;;4.20;99.90;;;;;;5116835;28;20106;-76
2022/02/05 04:38:43;;;;;;;9.68;3.30;;;4.20;99.90;;;;;;5116807;28;20023;-77
2022/02/05 04:41:16;;;;;;;9.85;3.20;;;4.20;99.90;;;;;;5116914;28;20031;-75
2022/02/05 04:54:09;;;;;;;8.15;3.75;;;4.10;99.90;;;;;;5116734;28;20030;-75
2022/02/05 04:56:51;;;;;;;7.18;3.38;;;4.10;99.90;;;;;;5117064;28;20023;-76
2022/02/05 05:00:02;;;;;;;8.35;2.75;;;4.10;99.90;;;;;;5117012;28;20028;-77
2022/02/05 05:20:24;;;;;;;9.05;2.97;;;4.20;99.90;;;;;;5114590;28;20031;-75
2022/02/05 05:22:49;;;;;;;6.82;3.08;;;4.20;99.90;;;;;;5115935;28;20019;-75
2022/02/05 05:25:16;;;;;;;10.13;2.92;;;4.10;99.90;;;;;;5115948;28;20558;-77
2022/02/05 05:27:42;;;;;;;10.10;3.47;;;4.20;99.90;;;;;;5116108;28;20026;-75
2022/02/05 05:30:08;;;;;;;7.15;2.97;;;4.30;99.90;;;;;;5115801;28;20024;-77
2022/02/05 05:32:33;;;;;;;9.85;2.67;;;4.40;99.90;;;;;;5116373;28;20019;-75
2022/02/05 05:34:59;;;;;;;9.32;3.83;;;4.40;99.90;;;;;;5114431;28;20362;-76
2022/02/05 05:37:25;;;;;;;9.63;3.20;;;4.40;99.90;;;;;;5115693;28;20028;-77
2022/02/05 05:39:52;;;;;;;6.35;3.17;;;4.50;99.90;;;;;;5115857;28;20389;-75
2022/02/05 05:42:25;;;;;;;8.40;2.70;;;4.50;99.90;;;;;;5115573;28;20035;-75
2022/02/05 05:45:16;;;;;;;12.60;3.58;;;4.30;99.90;;;;;;5115848;28;20089;-76
2022/02/05 05:53:06;;;;;;;8.88;3.53;;;4.30;99.90;;;;;;5115940;28;20035;-77
2022/02/05 05:55:33;;;;;;;7.93;2.60;;;4.30;99.90;;;;;;5115216;28;20028;-75
2022/02/05 05:57:58;;;;;;;7.22;2.60;;;4.30;99.90;;;;;;5115288;28;20015;-75
2022/02/05 06:00:24;;;;;;;12.57;4.35;;;4.30;99.90;;;;;;5113925;28;20535;-78
2022/02/05 06:02:50;;;;;;;5.47;2.50;;;4.30;99.90;;;;;;5115168;28;20483;-77
2022/02/05 06:05:15;;;;;;;10.30;3.10;;;4.40;99.90;;;;;;5115666;28;20024;-75
2022/02/05 06:07:41;;;;;;;12.50;3.10;;;4.50;99.90;;;;;;5115303;28;20027;-78
2022/02/05 06:10:07;;;;;;;9.65;2.75;;;4.50;99.90;;;;;;5115352;28;20034;-75
2022/02/05 06:12:33;;;;;;;15.70;3.20;;;4.50;99.90;;;;;;5115242;28;20027;-77
2022/02/05 06:15:02;;;;;;;5.82;3.08;;;4.40;99.90;;;;;;5114906;28;20115;-75
2022/02/05 06:17:28;;;;;;;8.73;2.73;;;4.20;99.90;;;;;;5114909;28;20027;-77
2022/02/05 06:19:54;;;;;;;8.95;2.88;;;4.20;99.90;;;;;;5114800;28;20020;-75
2022/02/05 06:22:20;;;;;;;12.07;3.03;;;4.20;99.90;;;;;;5114802;28;20041;-77
2022/02/05 06:24:46;;;;;;;10.85;3.97;;;4.30;99.90;;;;;;5114719;28;20408;-78
2022/02/05 06:27:11;;;;;;;10.30;3.40;;;4.40;99.90;;;;;;5114664;28;20030;-77
2022/02/05 06:29:37;;;;;;;11.18;3.85;;;4.50;99.90;;;;;;5114494;28;20027;-76
2022/02/05 06:32:03;;;;;;;7.53;3.22;;;4.50;99.90;;;;;;5115002;28;20073;-77
2022/02/05 06:34:29;;;;;;;12.93;3.53;;;4.40;99.90;;;;;;5114599;28;20026;-75
2022/02/05 06:36:55;;;;;;;12.63;3.78;;;4.40;99.90;;;;;;5114470;28;20070;-79
2022/02/05 06:39:22;;;;;;;13.25;6.07;;;4.40;99.90;;;;;;5114746;28;20020;-77
2022/02/05 06:41:47;;;;;;;16.92;7.43;;;4.40;99.90;;;;;;5114356;28;20032;-75
2022/02/05 06:44:14;;;;;;;17.10;7.55;;;4.30;99.90;;;;;;5113087;28;20022;-76
2022/02/05 06:46:41;;;;;;;15.10;3.63;;;4.40;99.90;;;;;;5114324;28;20102;-77
2022/02/05 06:49:07;;;;;;;6.28;2.70;;;4.40;99.90;;;;;;5114280;28;20490;-74
2022/02/05 06:51:33;;;;;;;12.07;4.68;;;4.30;99.90;;;;;;5114274;28;20032;-76
2022/02/05 06:53:59;;;;;;;13.88;3.67;;;4.30;99.90;;;;;;5114124;28;20115;-77
2022/02/05 06:56:25;;;;;;;8.98;3.85;;;4.20;99.90;;;;;;5114217;28;20544;-78
2022/02/05 06:58:50;;;;;;;10.52;3.35;;;4.20;99.90;;;;;;5114704;28;20051;-75
2022/02/05 07:01:17;;;;;;;8.10;3.15;;;4.10;99.90;;;;;;5113981;28;20070;-75
2022/02/05 07:03:42;;;;;;;10.82;2.35;;;4.00;99.90;;;;;;5113909;27;20035;-77
2022/02/05 07:06:08;;;;;;;14.00;4.95;;;3.90;99.90;;;;;;5114343;28;20445;-80
2022/02/05 07:08:34;;;;;;;24.98;9.20;;;3.90;99.90;;;;;;5114272;28;20044;-76
2022/02/05 07:11:00;;;;;;;21.02;8.27;;;3.80;99.90;;;;;;5113972;28;20028;-77
2022/02/05 07:13:26;;;;;;;15.32;7.32;;;3.80;99.90;;;;;;5113945;28;20024;-77
2022/02/05 07:21:12;;;;;;;26.10;13.95;;;3.80;99.90;;;;;;5113746;28;20053;-76
2022/02/05 07:23:50;;;;;;;24.10;9.98;;;3.90;99.90;;;;;;5113899;28;20027;-78
2022/02/05 07:29:15;;;;;;;18.00;9.02;;;3.90;99.90;;;;;;5114041;28;20161;-76
2022/02/05 07:31:53;;;;;;;19.63;6.43;;;3.80;99.90;;;;;;5113712;28;20023;-74
2022/02/05 07:34:30;;;;;;;13.77;4.63;;;3.80;99.90;;;;;;5114295;28;20069;-74
2022/02/05 07:37:02;;;;;;;8.68;4.90;;;3.80;99.90;;;;;;5113953;28;20031;-77
2022/02/05 07:39:43;;;;;;;14.77;6.75;;;3.70;99.90;;;;;;5113674;28;20024;-77
2022/02/05 07:42:09;;;;;;;15.30;8.63;;;3.70;99.90;;;;;;5114463;28;20106;-78
2022/02/05 07:44:35;;;;;;;19.00;9.38;;;3.80;99.90;;;;;;5118138;28;20095;-75
2022/02/05 07:47:01;;;;;;;10.80;3.67;;;3.80;99.90;;;;;;5117874;28;20031;-75
2022/02/05 07:49:30;;;;;;;8.23;2.95;;;3.90;99.90;;;;;;5117763;28;20027;-76
2022/02/05 07:51:56;;;;;;;9.52;3.85;;;4.00;99.90;;;;;;5117725;28;20028;-78
2022/02/05 07:54:21;;;;;;;12.23;5.38;;;3.90;99.90;;;;;;5116347;28;20385;-77
2022/02/05 07:56:49;;;;;;;9.55;4.18;;;3.90;99.90;;;;;;5117900;28;20396;-75
2022/02/05 07:59:17;;;;;;;10.10;4.50;;;3.80;99.90;;;;;;5117324;28;20536;-76
2022/02/05 08:01:43;;;;;;;10.43;6.00;;;3.90;99.90;;;;;;5117443;28;20032;-75
2022/02/05 08:04:09;;;;;;;11.95;5.75;;;4.00;99.90;;;;;;5117286;28;20046;-75
2022/02/05 08:06:35;;;;;;;12.85;5.50;;;4.10;99.90;;;;;;5117728;28;20488;-78
2022/02/05 08:09:11;;;;;;;11.50;6.03;;;4.10;99.90;;;;;;5117422;28;20089;-75
2022/02/05 08:11:43;;;;;;;10.63;5.43;;;4.10;99.90;;;;;;5115852;28;20114;-76
2022/02/05 08:14:11;;;;;;;10.43;5.90;;;4.10;99.90;;;;;;5117671;27;20103;-77
2022/02/05 08:16:55;;;;;;;13.27;7.30;;;4.20;99.90;;;;;;5117576;28;20031;-76
2022/02/05 08:19:21;;;;;;;8.60;3.67;;;4.00;99.90;;;;;;5117843;28;20359;-76
2022/02/05 08:21:46;;;;;;;18.02;7.18;;;4.10;99.90;;;;;;5117048;28;20027;-77
2022/02/05 08:24:12;;;;;;;19.65;5.72;;;4.10;99.90;;;;;;5117131;28;20051;-77
2022/02/05 08:26:38;;;;;;;9.10;4.70;;;4.20;99.90;;;;;;5117143;28;20026;-76
2022/02/05 08:29:05;;;;;;;11.70;6.78;;;4.20;99.90;;;;;;5117298;28;20016;-75
2022/02/05 08:31:31;;;;;;;12.57;6.50;;;4.30;99.90;;;;;;5116958;28;20102;-74
2022/02/05 08:33:57;;;;;;;10.35;5.40;;;4.40;99.90;;;;;;5116985;28;20027;-77
2022/02/05 08:36:24;;;;;;;23.95;13.75;;;4.30;99.90;;;;;;5116917;28;20374;-78
2022/02/05 08:38:52;;;;;;;12.80;5.65;;;4.40;99.90;;;;;;5116862;28;20028;-75
2022/02/05 08:41:18;;;;;;;19.98;8.32;;;4.50;99.90;;;;;;5117003;27;20114;-77
2022/02/05 08:43:44;;;;;;;15.25;7.00;;;4.60;99.90;;;;;;5115442;28;20016;-76
2022/02/05 08:46:09;;;;;;;14.27;5.47;;;4.60;99.90;;;;;;5116683;28;20026;-77
2022/02/05 08:48:36;;;;;;;14.80;7.35;;;4.60;99.90;;;;;;5116700;28;20020;-76
2022/02/05 08:51:03;;;;;;;11.55;5.80;;;4.60;99.90;;;;;;5116967;28;20366;-77
2022/02/05 08:53:29;;;;;;;12.25;6.97;;;4.60;99.90;;;;;;5116296;28;20030;-77
2022/02/05 08:55:55;;;;;;;20.83;9.68;;;4.70;99.90;;;;;;5116505;28;20028;-76
2022/02/05 08:58:21;;;;;;;21.02;10.63;;;4.80;99.90;;;;;;5116469;28;20051;-79
2022/02/05 09:00:48;;;;;;;25.25;9.63;;;4.80;99.90;;;;;;5116340;28;20073;-76
2022/02/05 09:03:31;;;;;;;19.10;8.95;;;4.80;99.90;;;;;;5116178;28;20043;-77
2022/02/05 09:05:57;;;;;;;22.50;9.75;;;4.90;99.90;;;;;;5116664;28;20020;-77
2022/02/05 09:08:28;;;;;;;20.85;8.70;;;4.80;99.90;;;;;;5116855;28;20061;-75
2022/02/05 09:16:13;;;;;;;17.05;7.68;;;5.20;99.90;;;;;;5115892;28;20049;-76
2022/02/05 09:18:40;;;;;;;12.52;5.50;;;5.70;99.90;;;;;;5116327;27;20027;-76
2022/02/05 09:21:07;;;;;;;17.50;6.72;;;6.30;99.90;;;;;;5115934;28;20110;-77
2022/02/05 09:23:33;;;;;;;15.98;6.85;;;6.90;99.90;;;;;;5116004;28;20039;-77
2022/02/05 09:26:00;;;;;;;11.25;5.55;;;7.40;99.90;;;;;;5115974;28;20473;-76
2022/02/05 09:28:28;;;;;;;10.63;4.03;;;7.70;99.90;;;;;;5115964;28;20389;-77
2022/02/05 09:33:34;;;;;;;14.23;3.65;;;8.20;99.90;;;;;;5116124;28;20034;-76
2022/02/05 09:35:59;;;;;;;9.55;3.55;;;8.40;99.90;;;;;;5116023;28;20384;-76
2022/02/05 09:38:26;;;;;;;15.38;3.65;;;8.60;99.90;;;;;;5115716;28;20146;-75
2022/02/05 09:40:52;;;;;;;8.63;3.25;;;8.70;99.90;;;;;;5115545;28;20114;-77
2022/02/05 09:43:26;;;;;;;9.13;2.65;;;8.90;99.90;;;;;;5115925;28;20020;-79
2022/02/05 09:45:52;;;;;;;8.02;2.90;;;9.10;99.90;;;;;;5115526;28;20019;-79
2022/02/05 09:48:19;;;;;;;8.65;2.90;;;9.20;99.90;;;;;;5115353;28;20028;-76
2022/02/05 09:50:47;;;;;;;17.25;3.75;;;9.30;99.90;;;;;;5115661;28;20023;-80
2022/02/05 09:53:18;;;;;;;9.00;3.40;;;9.40;99.90;;;;;;5115402;28;20015;-78
2022/02/05 09:55:47;;;;;;;9.68;2.45;;;9.40;99.90;;;;;;5115059;28;20047;-78
2022/02/05 09:58:13;;;;;;;8.00;2.58;;;9.60;99.90;;;;;;5115290;28;20045;-76
2022/02/05 10:00:40;;;;;;;11.25;2.58;;;9.70;99.90;;;;;;5115148;28;20081;-76
2022/02/05 10:03:27;;;;;;;13.45;2.90;;;9.80;99.90;;;;;;5115004;28;20051;-76
2022/02/05 10:06:09;;;;;;;9.45;2.60;;;9.80;99.90;;;;;;5114769;28;20023;-76
2022/02/05 10:08:36;;;;;;;9.15;2.60;;;9.80;99.90;;;;;;5115158;27;20012;-77
2022/02/05 10:11:03;;;;;;;12.70;3.58;;;9.90;99.90;;;;;;5115384;28;20069;-77
2022/02/05 10:13:30;;;;;;;15.02;2.97;;;9.90;99.90;;;;;;5115159;28;20030;-77
2022/02/05 10:15:57;;;;;;;11.30;2.58;;;9.90;99.90;;;;;;5113606;28;20458;-78
2022/02/05 10:18:25;;;;;;;11.20;2.53;;;9.80;99.90;;;;;;5114925;27;20043;-78
2022/02/05 10:20:52;;;;;;;12.30;3.28;;;9.80;99.90;;;;;;5114760;28;20102;-77
2022/02/05 10:23:18;;;;;;;11.10;2.63;;;9.70;99.90;;;;;;5114813;28;20102;-76
2022/02/05 10:25:51;;;;;;;13.55;3.40;;;9.60;99.90;;;;;;5115075;28;20444;-78
2022/02/05 10:28:18;;;;;;;12.27;2.72;;;9.60;99.90;;;;;;5113169;28;20507;-75
2022/02/05 10:30:51;;;;;;;10.70;2.20;;;9.50;99.90;;;;;;5114939;28;20027;-75
2022/02/05 10:33:31;;;;;;;7.82;2.40;;;9.50;99.90;;;;;;5114793;28;20019;-75
2022/02/05 10:43:59;;;;;;;10.77;2.42;;;9.40;99.90;;;;;;5114395;28;20030;-77
2022/02/05 10:46:36;;;;;;;13.18;2.45;;;9.40;99.90;;;;;;5114594;28;20049;-76
2022/02/05 10:49:02;;;;;;;13.70;2.83;;;9.30;99.90;;;;;;5114810;28;20095;-76
2022/02/05 10:51:46;;;;;;;10.93;3.00;;;9.30;99.90;;;;;;5114269;28;20035;-75
2022/02/05 10:54:44;;;;;;;12.15;3.45;;;9.30;99.90;;;;;;5114485;28;20019;-74
2022/02/05 10:57:57;;;;;;;;;;;9.30;99.90;;;;;;5114933;28;20027;-73
2022/02/05 11:05:10;;;;;;;9.38;2.38;;;9.40;99.90;;;;;;5107887;28;20364;-74
2022/02/05 11:05:39;;;;;;;13.55;2.85;;;9.40;99.90;;;;;;5114755;28;20057;-74
2022/02/05 11:08:05;;;;;;;9.35;2.00;;;9.40;99.90;;;;;;5114214;28;20030;-76
2022/02/05 11:21:14;;;;;;;8.77;2.50;;;9.40;99.90;;;;;;5114389;28;20476;-74
2022/02/05 11:23:46;;;;;;;10.23;2.45;;;9.40;99.90;;;;;;5113842;28;20049;-73
2022/02/05 11:26:12;;;;;;;11.43;2.83;;;9.50;99.90;;;;;;5114106;28;20020;-74
2022/02/05 11:28:50;;;;;;;8.25;2.63;;;9.50;99.90;;;;;;5113756;28;20400;-74
2022/02/05 11:31:30;;;;;;;10.13;3.10;;;9.50;99.90;;;;;;5114233;28;20030;-74
2022/02/05 11:34:18;;;;;;;11.30;3.63;;;9.50;99.90;;;;;;5112077;28;20034;-75
2022/02/05 11:37:08;;;;;;;12.75;4.38;;;9.50;99.90;;;;;;5112075;28;20024;-74
2022/02/05 11:39:51;;;;;;;8.07;2.80;;;9.50;99.90;;;;;;5114018;28;20133;-74
2022/02/05 11:42:37;;;;;;;10.20;3.50;;;9.50;99.90;;;;;;5113559;28;20127;-74
2022/02/05 11:45:24;;;;;;;13.57;4.38;;;9.50;99.90;;;;;;5114190;28;20043;-74
2022/02/05 11:47:50;;;;;;;15.10;3.58;;;9.50;99.90;;;;;;5114060;28;20034;-75
2022/02/05 11:50:26;;;;;;;16.88;4.32;;;9.50;99.90;;;;;;5113511;28;20420;-73
2022/02/05 11:52:52;;;;;;;11.82;3.35;;;9.50;99.90;;;;;;5113540;28;20481;-74
2022/02/05 11:55:27;;;;;;;15.63;4.53;;;9.50;99.90;;;;;;5113390;28;20477;-74
2022/02/05 11:57:57;;;;;;;12.88;3.67;;;9.50;99.90;;;;;;5113410;28;20390;-73
2022/02/05 12:00:32;;;;;;;11.80;4.45;;;9.60;99.90;;;;;;5113622;28;20076;-74
2022/02/05 12:03:03;;;;;;;9.25;3.47;;;9.60;99.90;;;;;;5113477;28;20079;-75
2022/02/05 12:05:39;;;;;;;16.90;4.15;;;9.60;99.90;;;;;;5113687;28;20016;-74
2022/02/05 12:08:05;;;;;;;13.93;3.50;;;9.60;99.90;;;;;;5113695;28;20020;-75
2022/02/05 12:10:34;;;;;;;12.90;3.50;;;9.60;99.90;;;;;;5113593;28;20024;-74
2022/02/05 12:13:24;;;;;;;15.20;3.90;;;9.70;99.90;;;;;;5113320;28;20024;-74
2022/02/05 12:15:55;;;;;;;10.18;3.25;;;9.70;99.90;;;;;;5113604;28;20023;-76
2022/02/05 12:18:33;;;;;;;12.00;3.17;;;9.80;99.90;;;;;;5113248;28;20031;-74
2022/02/05 12:21:14;;;;;;;14.63;3.78;;;9.80;99.90;;;;;;5113218;28;20035;-75
2022/02/05 12:26:14;;;;;;;12.38;3.10;;;9.90;99.90;;;;;;5112914;28;20374;-75
2022/02/05 12:28:42;;;;;;;14.75;3.65;;;9.90;99.90;;;;;;5114825;28;20062;-73
2022/02/05 12:31:16;;;;;;;11.95;3.55;;;9.90;99.90;;;;;;5117025;28;20028;-74
2022/02/05 12:34:01;;;;;;;16.42;3.65;;;10.00;99.90;;;;;;5115649;28;20110;-75
2022/02/05 12:36:39;;;;;;;13.45;3.95;;;10.00;99.90;;;;;;5116925;28;20020;-76
2022/02/05 12:39:11;;;;;;;13.20;4.53;;;10.00;99.90;;;;;;5117210;28;20020;-73
2022/02/05 12:41:38;;;;;;;20.13;3.60;;;10.00;99.90;;;;;;5116793;28;20023;-74
2022/02/05 12:44:06;;;;;;;14.45;4.28;;;10.10;99.90;;;;;;5116799;27;20034;-75
2022/02/05 12:47:04;;;;;;;10.05;2.38;;;10.10;99.90;;;;;;5116711;28;20028;-75
2022/02/05 12:49:47;;;;;;;8.60;2.58;;;10.20;99.90;;;;;;5114456;28;20129;-74
2022/02/05 12:52:13;;;;;;;8.05;2.03;;;10.30;99.90;;;;;;5116947;28;20054;-74
2022/02/05 12:54:48;;;;;;;8.63;2.58;;;10.30;99.90;;;;;;5116491;28;20051;-73
2022/02/05 12:57:18;;;;;;;9.35;2.13;;;10.40;99.90;;;;;;5117019;28;20028;-76
2022/02/05 12:59:44;;;;;;;13.50;2.63;;;10.40;99.90;;;;;;5116778;28;20031;-74
2022/02/05 13:02:12;;;;;;;13.00;2.42;;;10.40;99.90;;;;;;5116256;28;20032;-73
2022/02/05 13:04:40;;;;;;;9.05;2.85;;;10.50;99.90;;;;;;5116214;27;20043;-75
2022/02/05 13:07:11;;;;;;;11.60;3.85;;;10.50;99.90;;;;;;5116871;28;20478;-73
2022/02/05 13:09:55;;;;;;;7.55;2.90;;;10.50;99.90;;;;;;5116605;28;20377;-75
2022/02/05 13:12:35;;;;;;;7.05;2.00;;;10.40;99.90;;;;;;5116410;28;20031;-74
2022/02/05 13:15:17;;;;;;;7.40;2.72;;;10.40;99.90;;;;;;5116516;28;20380;-74
2022/02/05 13:33:41;;;;;;;7.18;1.98;;;10.30;99.90;;;;;;5115798;28;20162;-73
2022/02/05 13:38:49;;;;;;;7.40;2.10;;;10.20;99.90;;;;;;5116564;27;20055;-73
2022/02/05 13:41:14;;;;;;;8.00;2.33;;;10.20;99.90;;;;;;5114815;28;20089;-74
2022/02/05 13:43:58;;;;;;;8.85;1.98;;;10.30;99.90;;;;;;5115849;28;20027;-74
2022/02/05 13:46:24;;;;;;;10.48;3.33;;;10.30;99.90;;;;;;5115893;28;20020;-74
2022/02/05 13:48:49;;;;;;;9.60;2.70;;;10.30;99.90;;;;;;5115546;28;20393;-74
2022/02/05 13:51:18;;;;;;;10.20;2.70;;;10.50;99.90;;;;;;5115718;28;20107;-73
2022/02/05 13:53:55;;;;;;;12.27;3.13;;;10.60;99.90;;;;;;5115350;28;20477;-74
2022/02/05 13:56:22;;;;;;;6.63;1.83;;;10.70;99.90;;;;;;5115613;28;20473;-74
2022/02/05 13:58:47;;;;;;;9.20;2.35;;;10.70;99.90;;;;;;5115361;28;20111;-73
2022/02/05 14:01:33;;;;;;;9.30;2.20;;;10.80;99.90;;;;;;5115110;28;20107;-74
2022/02/05 14:04:19;;;;;;;9.45;2.67;;;10.80;99.90;;;;;;5115006;28;20039;-75
2022/02/05 14:06:57;;;;;;;4.80;1.65;;;10.90;99.90;;;;;;5115782;28;20024;-74
2022/02/05 14:09:23;;;;;;;9.60;3.20;;;11.00;99.90;;;;;;5115414;28;20578;-74
2022/02/05 14:11:49;;;;;;;10.05;2.28;;;11.10;99.90;;;;;;5115053;28;20026;-76
2022/02/05 14:14:30;;;;;;;6.70;2.00;;;11.10;99.90;;;;;;5115274;28;20020;-76
2022/02/05 14:16:58;;;;;;;10.38;1.95;;;11.30;99.90;;;;;;5114857;28;20104;-75
2022/02/05 14:19:28;;;;;;;8.05;1.98;;;11.30;99.90;;;;;;5114871;28;20451;-74
2022/02/05 14:21:56;;;;;;;5.95;2.22;;;11.30;99.90;;;;;;5114817;28;20427;-76
2022/02/05 14:24:29;;;;;;;13.38;2.65;;;11.50;99.90;;;;;;5113592;28;20024;-74
2022/02/05 14:27:13;;;;;;;8.77;2.03;;;11.40;99.90;;;;;;5113227;28;20050;-74
2022/02/05 14:42:44;;;;;;;6.68;2.25;;;11.30;99.90;;;;;;5114553;28;20020;-75
2022/02/05 14:45:10;;;;;;;6.72;1.65;;;11.20;99.90;;;;;;5114979;28;20028;-75
2022/02/05 14:47:36;;;;;;;7.97;2.30;;;11.30;99.90;;;;;;5114634;28;20015;-74
2022/02/05 14:50:05;;;;;;;8.60;2.20;;;11.30;99.90;;;;;;5114292;28;20089;-74
2022/02/05 14:52:31;;;;;;;5.50;1.73;;;11.30;99.90;;;;;;5113999;28;20020;-74
2022/02/05 14:54:57;;;;;;;11.10;1.70;;;11.40;99.90;;;;;;5114181;28;20476;-75
2022/02/05 14:57:22;;;;;;;7.95;1.67;;;11.40;99.90;;;;;;5114446;28;20023;-74
2022/02/05 14:59:48;;;;;;;4.80;1.40;;;11.50;99.90;;;;;;5114131;28;20028;-75
2022/02/05 15:02:14;;;;;;;6.80;1.80;;;11.50;99.90;;;;;;5114039;28;20027;-74
2022/02/05 15:04:40;;;;;;;10.32;2.83;;;11.60;99.90;;;;;;5113903;28;20501;-74
2022/02/05 15:07:07;;;;;;;8.77;2.67;;;11.60;99.90;;;;;;5114350;28;20020;-73
2022/02/05 15:09:33;;;;;;;9.88;4.00;;;11.70;99.90;;;;;;5114303;28;20024;-75
2022/02/05 15:11:59;;;;;;;16.50;4.72;;;11.70;99.90;;;;;;5113941;28;20031;-75
2022/02/05 15:14:25;;;;;;;7.53;2.40;;;11.60;99.90;;;;;;5114210;28;20025;-74
2022/02/05 15:16:51;;;;;;;11.63;3.85;;;11.60;99.90;;;;;;5114186;28;20019;-74
2022/02/05 15:19:16;;;;;;;13.20;3.28;;;11.60;99.90;;;;;;5113884;28;20062;-73
2022/02/05 15:21:42;;;;;;;10.10;2.70;;;11.60;99.90;;;;;;5114071;28;20414;-75
2022/02/05 15:24:09;;;;;;;10.60;3.13;;;11.50;99.90;;;;;;5113795;28;20054;-74
2022/02/05 15:26:36;;;;;;;12.80;3.60;;;11.50;99.90;;;;;;5114324;28;20018;-74
2022/02/05 15:29:12;;;;;;;7.45;2.53;;;11.50;99.90;;;;;;5113738;28;20532;-74
2022/02/05 15:31:40;;;;;;;9.60;2.88;;;11.50;99.90;;;;;;5114008;28;20103;-74
2022/02/05 15:34:07;;;;;;;6.75;2.03;;;11.40;99.90;;;;;;5113691;28;20099;-75
2022/02/05 15:44:09;;;;;;;6.80;1.85;;;11.20;99.90;;;;;;5113782;28;20049;-74
2022/02/05 15:46:35;;;;;;;9.55;2.70;;;11.20;99.90;;;;;;5113849;28;20446;-74
2022/02/05 15:49:01;;;;;;;11.30;3.58;;;11.20;99.90;;;;;;5113823;28;20059;-74
2022/02/05 15:51:30;;;;;;;9.55;4.05;;;11.10;99.90;;;;;;5113486;28;20019;-75
2022/02/05 15:54:02;;;;;;;11.27;4.10;;;11.10;99.90;;;;;;5112166;28;20073;-74
2022/02/05 15:58:59;;;;;;;10.55;2.80;;;11.10;99.90;;;;;;5113481;28;20031;-74
2022/02/05 16:01:25;;;;;;;6.30;2.75;;;11.10;99.90;;;;;;5113674;28;20023;-74
2022/02/05 16:03:51;;;;;;;8.40;2.65;;;11.10;99.90;;;;;;5114994;28;20051;-74
2022/02/05 16:06:17;;;;;;;14.35;7.05;;;11.00;99.90;;;;;;5117543;28;20064;-74
2022/02/05 16:08:42;;;;;;;9.38;3.58;;;11.00;99.90;;;;;;5117991;28;20016;-75
2022/02/05 16:11:08;;;;;;;8.50;2.75;;;11.00;99.90;;;;;;5117685;28;20057;-74
2022/02/05 16:13:34;;;;;;;9.45;3.47;;;11.00;99.90;;;;;;5117365;28;20028;-75
2022/02/05 16:16:00;;;;;;;8.68;2.78;;;11.00;99.90;;;;;;5117345;28;20431;-74
2022/02/05 16:18:25;;;;;;;8.07;3.10;;;11.00;99.90;;;;;;5117293;28;20550;-74
2022/02/05 16:20:51;;;;;;;11.07;4.45;;;10.90;99.90;;;;;;5117171;28;20132;-74
2022/02/05 16:23:17;;;;;;;8.70;3.67;;;10.90;99.90;;;;;;5117227;28;20020;-74